createdAt,value
2022-09-01T00:00:07.442Z,15.17
2022-09-01T00:02:36.307Z,15.20
2022-09-01T00:05:08.205Z,15.20
2022-09-01T00:07:36.612Z,15.21
2022-09-01T00:10:08.778Z,15.21
2022-09-01T00:12:37.732Z,15.23
2022-09-01T00:15:09.874Z,15.18
2022-09-01T00:17:38.121Z,15.25
2022-09-01T00:20:07.359Z,15.27
2022-09-01T00:22:36.662Z,15.30
2022-09-01T00:25:06.669Z,15.33
2022-09-01T00:27:34.370Z,15.35
2022-09-01T00:30:02.744Z,15.38
2022-09-01T00:32:32.149Z,15.39
2022-09-01T00:35:00.318Z,15.38
2022-09-01T00:37:29.353Z,15.41
2022-09-01T00:39:57.350Z,15.43
2022-09-01T00:42:25.660Z,15.47
2022-09-01T00:44:54.644Z,15.43
2022-09-01T00:47:22.795Z,15.48
2022-09-01T00:49:52.836Z,15.48
2022-09-01T00:52:29.649Z,15.49
2022-09-01T00:55:02.447Z,15.47
2022-09-01T00:57:31.329Z,15.49
2022-09-01T01:00:06.073Z,15.36
2022-09-01T01:02:34.166Z,15.53
2022-09-01T01:05:04.356Z,15.55
2022-09-01T01:07:41.892Z,15.61
2022-09-01T01:10:16.775Z,15.69
2022-09-01T01:12:45.524Z,15.75
2022-09-01T01:15:14.576Z,15.81
2022-09-01T01:17:42.774Z,15.87
2022-09-01T01:20:33.948Z,15.91
2022-09-01T01:23:18.620Z,15.93
2022-09-01T01:25:49.530Z,15.97
2022-09-01T01:28:31.768Z,15.99
2022-09-01T01:31:12.451Z,16.01
2022-09-01T01:33:47.950Z,16.03
2022-09-01T01:36:31.811Z,16.07
2022-09-01T01:39:07.622Z,16.14
2022-09-01T01:41:37.022Z,16.18
2022-09-01T01:44:05.956Z,16.21
2022-09-01T01:46:38.007Z,16.21
2022-09-01T01:49:06.208Z,16.31
2022-09-01T01:51:35.160Z,16.35
2022-09-01T01:54:08.015Z,16.39
2022-09-01T01:56:39.510Z,16.42
2022-09-01T01:59:08.199Z,16.44
2022-09-01T02:01:37.496Z,16.48
2022-09-01T02:04:06.308Z,16.54
2022-09-01T02:06:36.281Z,16.59
2022-09-01T02:09:05.512Z,16.65
2022-09-01T02:11:36.441Z,16.67
2022-09-01T02:14:07.365Z,16.77
2022-09-01T02:16:37.975Z,16.87
2022-09-01T02:19:09.501Z,17.02
2022-09-01T02:21:37.569Z,17.17
2022-09-01T02:24:09.348Z,17.32
2022-09-01T02:26:41.497Z,17.51
2022-09-01T02:29:22.309Z,17.64
2022-09-01T02:31:53.397Z,17.71
2022-09-01T02:34:32.148Z,17.84
2022-09-01T02:37:00.212Z,17.88
2022-09-01T02:39:35.777Z,17.88
2022-09-01T02:42:03.889Z,17.96
2022-09-01T02:44:32.742Z,18.05
2022-09-01T02:47:02.585Z,18.15
2022-09-01T02:49:30.940Z,18.24
2022-09-01T02:52:02.172Z,18.34
2022-09-01T02:54:33.345Z,18.43
2022-09-01T02:57:03.776Z,18.54
2022-09-01T02:59:32.864Z,18.71
2022-09-01T03:02:02.227Z,18.84
2022-09-01T03:04:34.407Z,19.03
2022-09-01T03:07:06.983Z,19.25
2022-09-01T03:09:36.063Z,19.39
2022-09-01T03:12:07.759Z,19.48
2022-09-01T03:14:36.141Z,19.59
2022-09-01T03:17:04.222Z,19.68
2022-09-01T03:19:40.723Z,19.79
2022-09-01T03:22:09.822Z,19.89
2022-09-01T03:24:39.736Z,20.04
2022-09-01T03:27:08.269Z,20.18
2022-09-01T03:29:37.048Z,20.28
2022-09-01T03:32:06.122Z,20.33
2022-09-01T03:34:35.261Z,20.40
2022-09-01T03:37:10.668Z,20.44
2022-09-01T03:39:39.046Z,20.58
2022-09-01T03:42:10.010Z,20.69
2022-09-01T03:44:41.857Z,20.76
2022-09-01T03:47:15.908Z,20.91
2022-09-01T03:49:44.450Z,20.98
2022-09-01T03:52:14.117Z,21.05
2022-09-01T03:54:42.401Z,21.15
2022-09-01T03:57:11.312Z,21.21
2022-09-01T03:59:45.988Z,21.29
2022-09-01T04:02:14.337Z,21.27
2022-09-01T04:04:42.436Z,21.28
2022-09-01T04:07:10.478Z,21.23
2022-09-01T04:09:47.309Z,21.16
2022-09-01T04:12:16.672Z,21.21
2022-09-01T04:14:44.896Z,21.35
2022-09-01T04:17:31.609Z,21.56
2022-09-01T04:19:59.964Z,21.73
2022-09-01T04:22:30.770Z,21.91
2022-09-01T04:25:00.123Z,22.05
2022-09-01T04:27:28.684Z,22.21
2022-09-01T04:29:58.010Z,22.33
2022-09-01T04:32:54.732Z,22.48
2022-09-01T04:35:28.755Z,22.56
2022-09-01T04:37:56.708Z,22.64
2022-09-01T04:40:25.836Z,22.72
2022-09-01T04:42:55.792Z,22.85
2022-09-01T04:45:25.858Z,22.87
2022-09-01T04:47:55.771Z,22.93
2022-09-01T04:50:24.287Z,22.95
2022-09-01T04:52:54.036Z,23.03
2022-09-01T04:55:23.105Z,23.12
2022-09-01T04:57:52.382Z,23.15
2022-09-01T05:00:27.180Z,23.21
2022-09-01T05:03:05.195Z,23.30
2022-09-01T05:05:47.097Z,23.19
2022-09-01T05:08:20.923Z,23.37
2022-09-01T05:10:57.552Z,23.46
2022-09-01T05:13:28.060Z,23.44
2022-09-01T05:16:14.520Z,23.46
2022-09-01T05:18:48.321Z,23.50
2022-09-01T05:21:22.607Z,23.52
2022-09-01T05:23:53.337Z,23.55
2022-09-01T05:26:25.602Z,23.56
2022-09-01T05:28:57.303Z,23.42
2022-09-01T05:31:28.793Z,23.57
2022-09-01T05:33:58.793Z,23.54
2022-09-01T05:36:28.567Z,23.54
2022-09-01T05:38:57.676Z,23.55
2022-09-01T05:41:25.933Z,23.52
2022-09-01T05:44:00.835Z,23.49
2022-09-01T05:46:30.488Z,23.41
2022-09-01T05:48:58.779Z,23.39
2022-09-01T05:51:46.443Z,23.34
2022-09-01T05:54:22.181Z,23.26
2022-09-01T05:56:55.399Z,23.32
2022-09-01T05:59:25.820Z,23.29
2022-09-01T06:01:56.229Z,23.29
2022-09-01T06:04:28.124Z,23.31
2022-09-01T06:07:06.803Z,23.32
2022-09-01T06:09:42.246Z,23.37
2022-09-01T06:12:18.793Z,23.47
2022-09-01T06:14:49.229Z,23.59
2022-09-01T06:17:23.890Z,23.68
2022-09-01T06:19:54.234Z,23.67
2022-09-01T06:22:24.563Z,23.70
2022-09-01T06:24:58.239Z,23.70
2022-09-01T06:27:31.934Z,23.81
2022-09-01T06:30:03.610Z,23.82
2022-09-01T06:32:35.883Z,23.82
2022-09-01T06:35:05.270Z,23.92
2022-09-01T06:37:35.154Z,23.95
2022-09-01T06:40:04.555Z,23.91
2022-09-01T06:42:35.859Z,23.81
2022-09-01T06:45:05.054Z,23.67
2022-09-01T06:47:33.483Z,23.52
2022-09-01T06:53:35.599Z,23.52
2022-09-01T06:58:32.104Z,23.61
2022-09-01T07:01:00.121Z,23.67
2022-09-01T07:03:28.305Z,23.67
2022-09-01T07:06:01.420Z,23.71
2022-09-01T07:08:30.529Z,23.81
2022-09-01T07:14:25.901Z,24.05
2022-09-01T07:17:22.614Z,24.23
2022-09-01T07:19:51.535Z,24.36
2022-09-01T07:25:14.008Z,24.69
2022-09-01T07:27:51.257Z,24.84
2022-09-01T07:30:24.039Z,25.01
2022-09-01T07:32:55.146Z,25.07
2022-09-01T07:35:23.365Z,25.06
2022-09-01T07:43:33.550Z,25.14
2022-09-01T07:49:29.645Z,25.29
2022-09-01T07:51:47.298Z,25.34
2022-09-01T07:54:15.476Z,25.41
2022-09-01T07:56:43.882Z,25.48
2022-09-01T07:59:14.817Z,25.65
2022-09-01T08:01:43.774Z,26.00
2022-09-01T08:04:11.961Z,26.17
2022-09-01T08:06:40.901Z,26.26
2022-09-01T08:09:25.349Z,26.50
2022-09-01T08:12:02.130Z,27.10
2022-09-01T08:14:35.197Z,27.71
2022-09-01T08:19:56.399Z,28.44
2022-09-01T08:22:29.159Z,28.66
2022-09-01T08:24:57.159Z,28.96
2022-09-01T08:27:25.295Z,29.32
2022-09-01T08:29:54.439Z,29.37
2022-09-01T08:32:23.152Z,29.11
2022-09-01T08:34:51.469Z,28.67
2022-09-01T08:37:23.124Z,28.27
2022-09-01T08:39:51.200Z,27.80
2022-09-01T08:42:34.388Z,27.47
2022-09-01T08:45:30.683Z,27.05
2022-09-01T08:51:21.586Z,26.47
2022-09-01T08:54:12.652Z,26.24
2022-09-01T08:56:41.853Z,26.15
2022-09-01T08:59:14.899Z,26.10
2022-09-01T09:02:00.322Z,26.02
2022-09-01T09:04:52.847Z,25.91
2022-09-01T09:07:51.297Z,25.80
2022-09-01T09:10:25.036Z,25.70
2022-09-01T09:13:18.105Z,25.60
2022-09-01T09:15:49.167Z,25.53
2022-09-01T09:18:39.107Z,25.47
2022-09-01T09:21:47.385Z,25.41
2022-09-01T09:24:50.803Z,25.40
2022-09-01T09:27:26.694Z,25.48
2022-09-01T09:30:09.578Z,25.61
2022-09-01T09:35:47.246Z,26.07
2022-09-01T09:38:21.012Z,26.10
2022-09-01T09:41:17.172Z,26.02
2022-09-01T09:43:58.606Z,25.90
2022-09-01T09:46:34.395Z,25.85
2022-09-01T09:49:16.601Z,25.83
2022-09-01T09:51:50.052Z,25.88
2022-09-01T09:54:23.048Z,26.03
2022-09-01T09:57:08.749Z,26.22
2022-09-01T10:00:00.652Z,26.52
2022-09-01T10:02:36.126Z,26.93
2022-09-01T10:05:42.807Z,27.07
2022-09-01T10:08:46.489Z,26.80
2022-09-01T10:11:35.888Z,26.49
2022-09-01T10:14:13.816Z,26.21
2022-09-01T10:17:16.116Z,25.95
2022-09-01T10:19:55.144Z,25.72
2022-09-01T10:22:25.633Z,25.58
2022-09-01T10:24:53.590Z,25.54
2022-09-01T10:27:31.506Z,25.47
2022-09-01T10:30:23.972Z,25.38
2022-09-01T10:33:11.213Z,25.18
2022-09-01T10:36:02.391Z,25.26
2022-09-01T10:38:31.544Z,25.21
2022-09-01T10:41:14.711Z,25.13
2022-09-01T10:43:47.110Z,25.08
2022-09-01T10:46:38.832Z,25.06
2022-09-01T10:49:32.572Z,25.02
2022-09-01T10:52:06.560Z,24.99
2022-09-01T10:55:01.784Z,24.94
2022-09-01T10:57:55.843Z,24.84
2022-09-01T11:00:40.009Z,24.79
2022-09-01T11:03:35.169Z,24.74
2022-09-01T11:06:12.589Z,24.72
2022-09-01T11:09:02.069Z,24.68
2022-09-01T11:11:47.270Z,24.63
2022-09-01T11:14:23.806Z,24.57
2022-09-01T11:17:26.732Z,24.53
2022-09-01T11:20:28.038Z,24.49
2022-09-01T11:23:31.520Z,24.46
2022-09-01T11:26:19.847Z,24.43
2022-09-01T11:28:50.295Z,24.40
2022-09-01T11:31:31.720Z,24.35
2022-09-01T11:34:26.258Z,24.29
2022-09-01T11:37:01.729Z,24.24
2022-09-01T11:39:43.102Z,24.15
2022-09-01T11:42:15.153Z,24.14
2022-09-01T11:44:56.034Z,24.03
2022-09-01T11:47:36.994Z,23.96
2022-09-01T11:50:17.587Z,23.87
2022-09-01T11:52:55.741Z,23.77
2022-09-01T11:55:46.739Z,23.69
2022-09-01T11:58:31.423Z,23.65
2022-09-01T12:03:42.765Z,23.53
2022-09-01T12:06:14.131Z,23.56
2022-09-01T12:08:52.566Z,23.48
2022-09-01T12:11:24.283Z,23.44
2022-09-01T12:14:01.930Z,23.36
2022-09-01T12:16:36.611Z,23.29
2022-09-01T12:19:07.888Z,23.19
2022-09-01T12:21:43.492Z,23.13
2022-09-01T12:24:22.293Z,23.05
2022-09-01T12:26:58.379Z,22.99
2022-09-01T12:29:31.498Z,22.93
2022-09-01T12:32:02.116Z,22.82
2022-09-01T12:34:41.638Z,22.83
2022-09-01T12:37:23.499Z,22.79
2022-09-01T12:39:58.025Z,22.73
2022-09-01T12:42:38.924Z,22.66
2022-09-01T12:45:12.943Z,22.59
2022-09-01T12:47:50.253Z,22.51
2022-09-01T12:50:18.817Z,22.42
2022-09-01T12:52:52.345Z,22.35
2022-09-01T12:58:13.074Z,22.24
2022-09-01T13:01:00.581Z,22.19
2022-09-01T13:06:15.903Z,22.14
2022-09-01T13:08:44.573Z,22.06
2022-09-01T13:11:20.192Z,22.06
2022-09-01T13:13:49.356Z,22.03
2022-09-01T13:16:17.583Z,21.92
2022-09-01T13:21:36.745Z,21.85
2022-09-01T13:24:07.460Z,21.79
2022-09-01T13:26:35.565Z,21.76
2022-09-01T13:29:03.978Z,21.64
2022-09-01T13:31:32.775Z,21.65
2022-09-01T13:34:22.225Z,21.63
2022-09-01T13:36:52.692Z,21.55
2022-09-01T13:39:22.842Z,21.47
2022-09-01T13:41:51.225Z,21.44
2022-09-01T13:44:19.633Z,21.40
2022-09-01T13:50:04.973Z,21.27
2022-09-01T13:52:24.853Z,21.19
2022-09-01T13:55:12.962Z,21.11
2022-09-01T13:57:40.938Z,20.96
2022-09-01T14:00:16.380Z,20.92
2022-09-01T14:02:50.853Z,20.83
2022-09-01T14:05:21.450Z,20.76
2022-09-01T14:07:49.913Z,20.71
2022-09-01T14:10:19.688Z,20.68
2022-09-01T14:12:48.845Z,20.65
2022-09-01T14:15:25.015Z,20.56
2022-09-01T14:17:58.507Z,20.59
2022-09-01T14:20:36.788Z,20.53
2022-09-01T14:23:07.132Z,20.48
2022-09-01T14:25:35.927Z,20.46
2022-09-01T14:28:05.123Z,20.41
2022-09-01T14:30:34.823Z,20.39
2022-09-01T14:33:04.628Z,20.37
2022-09-01T14:35:35.767Z,20.36
2022-09-01T14:38:06.119Z,20.33
2022-09-01T14:40:34.327Z,20.31
2022-09-01T14:43:02.452Z,20.29
2022-09-01T14:45:31.634Z,20.22
2022-09-01T14:48:02.095Z,20.22
2022-09-01T14:50:37.098Z,20.20
2022-09-01T14:53:05.078Z,20.23
2022-09-01T14:55:33.347Z,20.23
2022-09-01T14:58:03.938Z,20.23
2022-09-01T15:00:36.401Z,20.21
2022-09-01T15:03:04.600Z,20.12
2022-09-01T15:05:39.503Z,20.14
2022-09-01T15:08:16.966Z,20.10
2022-09-01T15:10:46.773Z,19.99
2022-09-01T15:13:16.705Z,20.04
2022-09-01T15:15:44.886Z,20.04
2022-09-01T15:18:12.989Z,20.03
2022-09-01T15:20:46.153Z,20.03
2022-09-01T15:23:23.652Z,20.01
2022-09-01T15:25:55.515Z,19.96
2022-09-01T15:28:23.655Z,20.01
2022-09-01T15:30:54.554Z,19.93
2022-09-01T15:33:22.963Z,19.97
2022-09-01T15:35:51.148Z,19.89
2022-09-01T15:38:22.757Z,19.84
2022-09-01T15:40:57.091Z,19.87
2022-09-01T15:43:31.350Z,19.85
2022-09-01T15:46:02.728Z,19.83
2022-09-01T15:48:30.898Z,19.79
2022-09-01T15:51:25.440Z,19.73
2022-09-01T15:53:57.896Z,19.69
2022-09-01T15:56:27.630Z,19.65
2022-09-01T15:59:03.634Z,19.63
2022-09-01T16:01:36.835Z,19.57
2022-09-01T16:04:08.656Z,19.51
2022-09-01T16:06:36.845Z,19.41
2022-09-01T16:09:06.665Z,19.41
2022-09-01T16:11:38.662Z,19.38
2022-09-01T16:14:08.316Z,19.31
2022-09-01T16:16:52.155Z,19.23
2022-09-01T16:19:39.949Z,19.19
2022-09-01T16:22:26.079Z,19.12
2022-09-01T16:24:58.408Z,19.08
2022-09-01T16:27:35.054Z,18.98
2022-09-01T16:30:10.222Z,18.96
2022-09-01T16:32:46.099Z,18.86
2022-09-01T16:35:16.674Z,18.84
2022-09-01T16:37:53.504Z,18.74
2022-09-01T16:40:46.331Z,18.66
2022-09-01T16:43:31.602Z,18.57
2022-09-01T16:46:21.755Z,18.55
2022-09-01T16:49:28.664Z,18.49
2022-09-01T16:52:12.097Z,18.45
2022-09-01T16:54:58.579Z,18.39
2022-09-01T16:57:34.058Z,18.33
2022-09-01T17:00:09.536Z,18.32
2022-09-01T17:03:10.214Z,18.32
2022-09-01T17:06:09.573Z,18.29
2022-09-01T17:09:18.071Z,18.21
2022-09-01T17:11:49.525Z,18.20
2022-09-01T17:14:33.251Z,18.13
2022-09-01T17:17:10.277Z,18.03
2022-09-01T17:19:45.068Z,17.98
2022-09-01T17:22:15.368Z,17.95
2022-09-01T17:25:11.381Z,17.90
2022-09-01T17:27:54.816Z,17.90
2022-09-01T17:30:24.385Z,17.92
2022-09-01T17:33:18.585Z,17.89
2022-09-01T17:36:15.932Z,17.83
2022-09-01T17:39:28.533Z,17.83
2022-09-01T17:42:16.175Z,17.79
2022-09-01T17:44:57.083Z,17.94
2022-09-01T17:47:58.099Z,18.01
2022-09-01T17:51:01.700Z,18.10
2022-09-01T17:53:58.930Z,18.10
2022-09-01T17:56:27.663Z,18.05
2022-09-01T17:59:00.280Z,18.05
2022-09-01T18:01:52.355Z,18.01
2022-09-01T18:04:53.567Z,18.01
2022-09-01T18:07:58.956Z,17.95
2022-09-01T18:10:33.614Z,17.85
2022-09-01T18:13:06.576Z,17.61
2022-09-01T18:15:52.577Z,17.55
2022-09-01T18:18:29.178Z,17.59
2022-09-01T18:21:13.029Z,17.65
2022-09-01T18:23:46.009Z,17.45
2022-09-01T18:26:27.933Z,17.57
2022-09-01T18:28:57.905Z,17.52
2022-09-01T18:31:34.613Z,17.34
2022-09-01T18:34:35.875Z,17.22
2022-09-01T18:37:16.591Z,17.20
2022-09-01T18:40:03.206Z,17.21
2022-09-01T18:42:37.511Z,17.18
2022-09-01T18:46:01.134Z,17.08
2022-09-01T18:48:43.230Z,17.04
2022-09-01T18:51:37.412Z,17.01
2022-09-01T18:54:23.982Z,16.98
2022-09-01T18:57:12.891Z,16.94
2022-09-01T19:00:19.126Z,16.91
2022-09-01T19:03:27.150Z,16.90
2022-09-01T19:06:17.025Z,16.90
2022-09-01T19:08:55.185Z,16.89
2022-09-01T19:11:46.553Z,16.73
2022-09-01T19:14:28.938Z,16.09
2022-09-01T19:17:54.840Z,16.39
2022-09-01T19:20:51.776Z,16.37
2022-09-01T19:24:00.577Z,16.38
2022-09-01T19:26:41.299Z,16.29
2022-09-01T19:29:18.511Z,16.19
2022-09-01T19:31:58.724Z,16.13
2022-09-01T19:34:50.946Z,16.12
2022-09-01T19:37:21.159Z,16.12
2022-09-01T19:39:54.198Z,16.13
2022-09-01T19:42:59.760Z,15.96
2022-09-01T19:45:57.491Z,16.16
2022-09-01T19:49:04.572Z,16.09
2022-09-01T19:51:49.536Z,16.04
2022-09-01T19:54:48.722Z,15.99
2022-09-01T19:57:22.624Z,15.91
2022-09-01T20:00:04.577Z,15.88
2022-09-01T20:02:42.048Z,15.85
2022-09-01T20:05:23.142Z,15.76
2022-09-01T20:08:07.413Z,15.64
2022-09-01T20:11:00.147Z,15.75
2022-09-01T20:13:56.854Z,15.78
2022-09-01T20:16:49.690Z,15.81
2022-09-01T20:19:39.465Z,15.87
2022-09-01T20:22:40.796Z,15.90
2022-09-01T20:25:13.710Z,15.90
2022-09-01T20:28:15.024Z,15.92
2022-09-01T20:30:51.633Z,15.93
2022-09-01T20:33:31.726Z,15.95
2022-09-01T20:36:08.036Z,16.00
2022-09-01T20:39:09.832Z,15.99
2022-09-01T20:41:59.693Z,16.02
2022-09-01T20:44:40.809Z,16.04
2022-09-01T20:47:08.778Z,16.09
2022-09-01T20:49:39.489Z,16.10
2022-09-01T20:52:28.750Z,16.14
2022-09-01T20:55:02.691Z,16.19
2022-09-01T20:58:00.078Z,16.19
2022-09-01T21:00:30.544Z,16.20
2022-09-01T21:03:20.058Z,16.19
2022-09-01T21:06:21.837Z,16.22
2022-09-01T21:09:03.726Z,16.21
2022-09-01T21:11:43.203Z,16.25
2022-09-01T21:14:17.137Z,16.27
2022-09-01T21:17:06.536Z,16.29
2022-09-01T21:20:10.206Z,16.24
2022-09-01T21:22:38.768Z,16.02
2022-09-01T21:25:07.245Z,15.97
2022-09-01T21:27:45.821Z,15.86
2022-09-01T21:30:16.116Z,15.73
2022-09-01T21:32:44.454Z,15.61
2022-09-01T21:35:18.266Z,15.57
2022-09-01T21:37:46.462Z,15.39
2022-09-01T21:40:16.289Z,15.35
2022-09-01T21:42:55.354Z,15.29
2022-09-01T21:45:24.836Z,15.20
2022-09-01T21:47:54.316Z,15.08
2022-09-01T21:50:26.373Z,14.92
2022-09-01T21:52:54.482Z,14.95
2022-09-01T21:55:23.927Z,14.94
2022-09-01T21:57:53.674Z,14.85
2022-09-01T22:00:26.377Z,14.80
2022-09-01T22:03:00.026Z,14.62
2022-09-01T22:05:29.880Z,14.49
2022-09-01T22:07:59.521Z,14.31
2022-09-01T22:10:31.663Z,14.24
2022-09-01T22:13:04.100Z,14.26
2022-09-01T22:15:32.402Z,14.18
2022-09-01T22:18:03.017Z,14.14
2022-09-01T22:20:32.714Z,14.06
2022-09-01T22:23:21.143Z,13.92
2022-09-01T22:25:49.059Z,13.82
2022-09-01T22:28:17.155Z,13.68
2022-09-01T22:30:51.178Z,13.57
2022-09-01T22:33:21.468Z,13.49
2022-09-01T22:35:52.693Z,13.40
2022-09-01T22:38:23.195Z,13.36
2022-09-01T22:40:58.011Z,13.30
2022-09-01T22:43:30.469Z,13.31
2022-09-01T22:46:00.001Z,13.30
2022-09-01T22:48:29.638Z,13.18
2022-09-01T22:51:00.470Z,13.10
2022-09-01T22:53:31.920Z,13.07
2022-09-01T22:55:59.924Z,13.04
2022-09-01T22:58:29.346Z,12.98
2022-09-01T23:00:59.937Z,12.93
2022-09-01T23:03:27.964Z,12.88
2022-09-01T23:06:09.979Z,12.77
2022-09-01T23:08:39.421Z,12.73
2022-09-01T23:11:08.862Z,12.66
2022-09-01T23:13:39.910Z,12.68
2022-09-01T23:16:11.310Z,12.58
2022-09-01T23:18:42.193Z,12.60
2022-09-01T23:21:14.003Z,12.53
2022-09-01T23:23:43.726Z,12.42
2022-09-01T23:26:14.153Z,12.38
2022-09-01T23:28:45.836Z,12.31
2022-09-01T23:31:18.029Z,12.24
2022-09-01T23:33:47.366Z,12.19
2022-09-01T23:36:19.581Z,12.16
2022-09-01T23:38:49.657Z,12.17
2022-09-01T23:41:25.829Z,12.17
2022-09-01T23:43:54.269Z,12.08
2022-09-01T23:46:25.962Z,11.99
2022-09-01T23:48:56.152Z,11.96
2022-09-01T23:54:12.736Z,11.79
2022-09-01T23:56:41.557Z,11.77
2022-09-01T23:59:10.453Z,11.72
